| time (UTC) | temp F | wind direction | speed MPH | gust MPH | rain 1hr in | rain 24hr in | rain mn in | humidity % | barometer mb |
| 20260906184918 | 85 | 31 | 6.0 | 10.0 | 0.00 | 0.00 | 0.00 | 64 | 1010.3 |
| 20260906180918 | 82 | 34 | 7.0 | 9.0 | 0.00 | 0.00 | 0.00 | 71 | 1010.1 |
| 20260906174916 | 80 | 62 | 1.0 | 5.0 | 0.00 | 0.00 | 0.00 | 76 | 1010.8 |
| 20260906161917 | 80 | 75 | 1.0 | 3.0 | 0.00 | 0.00 | 0.00 | 77 | 1011.5 |
| 20260906160916 | 80 | 0 | 2.0 | 5.0 | 0.00 | 0.00 | 0.00 | 78 | 1011.4 |
| 20260906154917 | 79 | 297 | 3.0 | 6.0 | 0.00 | 0.00 | 0.00 | 79 | 1011.6 |
| 20260906144916 | 78 | 349 | 5.0 | 10.0 | 0.00 | 0.00 | 0.00 | 79 | 1011.2 |
| 20260906141916 | 76 | 280 | 7.0 | 10.0 | 0.00 | 0.00 | 0.00 | 84 | 1011.3 |
| 20260906134917 | 75 | 255 | 2.0 | 5.0 | 0.00 | 0.00 | 0.00 | 88 | 1011.3 |
| 20260906133916 | 74 | 256 | 2.0 | 6.0 | 0.00 | 0.00 | 0.00 | 89 | 1011.3 |
| 20260906131916 | 74 | 295 | 5.0 | 7.0 | 0.00 | 0.00 | 0.00 | 90 | 1011.3 |
| 20260906124917 | 73 | 162 | 2.0 | 3.0 | 0.00 | 0.00 | 0.00 | 91 | 1010.3 |
| 20260906123917 | 73 | 154 | 2.0 | 3.0 | 0.00 | 0.00 | 0.00 | 91 | 1010.2 |
| 20260906121916 | 72 | 163 | 2.0 | 3.0 | 0.00 | 0.00 | 0.00 | 91 | 1010.0 |
| 20260906114917 | 72 | 129 | 3.0 | 3.0 | 0.00 | 0.00 | 0.00 | 90 | 1009.6 |
| 20260906113917 | 72 | 144 | 3.0 | 5.0 | 0.00 | 0.00 | 0.00 | 90 | 1009.6 |
| 20260906111920 | 72 | 139 | 2.0 | 5.0 | 0.00 | 0.00 | 0.00 | 90 | 1009.4 |
| 20260906110917 | 72 | 153 | 3.0 | 6.0 | 0.00 | 0.00 | 0.00 | 90 | 1009.2 |
| 20260906104917 | 73 | 129 | 3.0 | 5.0 | 0.00 | 0.00 | 0.00 | 89 | 1009.2 |
| 20260906101917 | 73 | 134 | 3.0 | 5.0 | 0.00 | 0.00 | 0.00 | 88 | 1009.4 |
| 20260906100917 | 73 | 135 | 3.0 | 5.0 | 0.00 | 0.00 | 0.00 | 88 | 1009.3 |
| 20260906094917 | 73 | 110 | 3.0 | 5.0 | 0.00 | 0.00 | 0.00 | 89 | 1009.2 |
| 20260906083916 | 74 | 136 | 0.0 | 3.0 | 0.00 | 0.00 | 0.00 | 87 | 1009.3 |
| 20260906081916 | 74 | 101 | 3.0 | 3.0 | 0.00 | 0.00 | 0.00 | 87 | 1009.4 |
| 20260906074917 | 74 | 109 | 3.0 | 5.0 | 0.00 | 0.00 | 0.00 | 87 | 1009.1 |
| 20260906073918 | 74 | 124 | 3.0 | 5.0 | 0.00 | 0.00 | 0.00 | 86 | 1009.2 |
| 20260906070917 | 74 | 143 | 3.0 | 6.0 | 0.00 | 0.00 | 0.00 | 86 | 1009.0 |
| 20260906061917 | 75 | 125 | 3.0 | 6.0 | 0.00 | 0.00 | 0.00 | 85 | 1009.2 |
| 20260906053916 | 76 | 148 | 3.0 | 5.0 | 0.00 | 0.00 | 0.00 | 85 | 1009.3 |
| 20260906050916 | 76 | 112 | 3.0 | 5.0 | 0.00 | 0.00 | 0.00 | 85 | 1009.0 |
| 20260906044917 | 77 | 117 | 3.0 | 3.0 | 0.00 | 0.00 | 0.00 | 84 | 1009.1 |
| 20260906043916 | 77 | 124 | 3.0 | 3.0 | 0.00 | 0.00 | 0.00 | 83 | 1009.2 |
| 20260906041917 | 78 | 113 | 3.0 | 3.0 | 0.00 | 0.00 | 0.00 | 83 | 1009.2 |
| 20260906040917 | 78 | 115 | 3.0 | 5.0 | 0.00 | 0.00 | 0.00 | 83 | 1009.3 |
| 20260906033917 | 78 | 110 | 3.0 | 3.0 | 0.00 | 0.00 | 0.00 | 82 | 1009.0 |
| 20260906024916 | 79 | 123 | 2.0 | 3.0 | 0.00 | 0.00 | 0.00 | 79 | 1008.4 |
| 20260906020917 | 81 | 112 | 2.0 | 3.0 | 0.00 | 0.00 | 0.00 | 76 | 1007.7 |
| 20260906014916 | 81 | 128 | 2.0 | 3.0 | 0.00 | 0.00 | 0.00 | 75 | 1007.4 |
| 20260906010917 | 85 | 120 | 2.0 | 5.0 | 0.00 | 0.00 | 0.00 | 68 | 1007.0 |
| 20260906003916 | 88 | 154 | 3.0 | 5.0 | 0.00 | 0.00 | 0.00 | 63 | 1007.0 |
| 20260906000917 | 89 | 148 | 5.0 | 6.0 | 0.00 | 0.00 | 0.00 | 60 | 1007.1 |
| 20260905234917 | 92 | 162 | 5.0 | 8.0 | 0.00 | 0.00 | 0.00 | 57 | 1007.1 |
| 20260905233917 | 92 | 138 | 5.0 | 9.0 | 0.00 | 0.00 | 0.00 | 55 | 1007.0 |
| 20260905214917 | 93 | 150 | 4.0 | 14.0 | 0.00 | 0.00 | 0.00 | 51 | 1006.9 |
| 20260905213916 | 94 | 180 | 11.0 | 18.0 | 0.00 | 0.00 | 0.00 | 51 | 1007.0 |
| 20260905204917 | 93 | 134 | 10.0 | 15.0 | 0.00 | 0.00 | 0.00 | 58 | 1007.7 |
| 20260905200917 | 92 | 88 | 10.0 | 15.0 | 0.00 | 0.00 | 0.00 | 60 | 1008.5 |
| 20260905190916 | 91 | 72 | 10.0 | 20.0 | 0.00 | 0.00 | 0.00 | 63 | 1009.4 |